createdAt,value
2022-12-18T00:00:59.288Z,30.92
2022-12-18T00:04:07.737Z,28.30
2022-12-18T00:07:10.517Z,31.98
2022-12-18T00:10:15.488Z,30.07
2022-12-18T00:13:18.360Z,30.98
2022-12-18T00:16:23.404Z,35.95
2022-12-18T00:19:26.375Z,32.10
2022-12-18T00:22:29.035Z,26.00
2022-12-18T00:25:34.538Z,28.05
2022-12-18T00:28:37.616Z,28.45
2022-12-18T00:31:43.243Z,25.52
2022-12-18T00:34:47.915Z,26.85
2022-12-18T00:37:51.446Z,30.27
2022-12-18T00:40:54.246Z,28.17
2022-12-18T00:43:56.691Z,26.75
2022-12-18T00:46:59.574Z,32.53
2022-12-18T00:50:02.249Z,31.13
2022-12-18T00:53:05.211Z,27.40
2022-12-18T00:56:08.114Z,28.50
2022-12-18T00:59:10.829Z,29.20
2022-12-18T01:02:15.075Z,30.10
2022-12-18T01:05:19.578Z,35.53
2022-12-18T01:08:22.246Z,33.60
2022-12-18T01:11:25.300Z,31.73
2022-12-18T01:14:28.122Z,34.20
2022-12-18T01:17:31.030Z,33.40
2022-12-18T01:20:33.891Z,32.47
2022-12-18T01:23:37.018Z,30.77
2022-12-18T01:26:39.957Z,29.70
2022-12-18T01:29:43.647Z,29.90
2022-12-18T01:32:46.130Z,27.33
2022-12-18T01:35:48.970Z,30.17
2022-12-18T01:38:52.889Z,32.03
2022-12-18T01:42:05.293Z,34.60
2022-12-18T01:45:16.462Z,48.85
2022-12-18T01:48:19.973Z,37.13
2022-12-18T01:51:23.063Z,40.43
2022-12-18T01:54:25.857Z,31.73
2022-12-18T01:57:29.743Z,41.83
2022-12-18T02:00:32.856Z,44.55
2022-12-18T02:03:35.515Z,51.75
2022-12-18T02:06:42.401Z,51.78
2022-12-18T02:09:52.103Z,53.72
2022-12-18T02:13:20.062Z,31.87
2022-12-18T02:16:47.189Z,31.13
2022-12-18T02:20:08.114Z,31.77
2022-12-18T02:23:31.660Z,43.23
2022-12-18T02:26:44.846Z,34.75
2022-12-18T02:29:58.988Z,32.10
2022-12-18T02:33:08.158Z,30.77
2022-12-18T02:36:13.999Z,32.80
2022-12-18T02:39:19.323Z,37.67
2022-12-18T02:42:33.827Z,40.35
2022-12-18T02:45:48.085Z,31.63
2022-12-18T02:48:53.765Z,31.48
2022-12-18T02:52:20.647Z,32.97
2022-12-18T02:55:49.935Z,37.23
2022-12-18T02:59:03.968Z,35.15
2022-12-18T03:02:25.785Z,28.70
2022-12-18T03:05:37.443Z,36.97
2022-12-18T03:08:44.963Z,30.20
2022-12-18T03:12:13.705Z,31.50
2022-12-18T03:15:31.775Z,30.83
2022-12-18T03:18:58.537Z,33.50
2022-12-18T03:22:04.973Z,28.60
2022-12-18T03:25:20.117Z,33.55
2022-12-18T03:28:23.979Z,31.73
2022-12-18T03:31:37.055Z,34.08
2022-12-18T03:34:43.471Z,41.50
2022-12-18T03:37:49.553Z,35.42
2022-12-18T03:41:03.284Z,37.55
2022-12-18T03:44:17.546Z,41.17
2022-12-18T03:47:30.064Z,41.45
2022-12-18T03:51:02.861Z,39.80
2022-12-18T03:54:07.947Z,38.08
2022-12-18T03:57:24.298Z,35.65
2022-12-18T04:00:31.464Z,38.37
2022-12-18T04:03:43.932Z,35.58
2022-12-18T04:06:50.240Z,35.70
2022-12-18T04:09:57.759Z,38.13
2022-12-18T04:13:00.668Z,41.60
2022-12-18T04:16:04.766Z,33.38
2022-12-18T04:19:08.050Z,37.65
2022-12-18T04:22:16.079Z,43.73
2022-12-18T04:25:22.871Z,48.33
2022-12-18T04:28:42.647Z,42.47
2022-12-18T04:31:45.829Z,41.53
2022-12-18T04:34:48.571Z,44.80
2022-12-18T04:37:54.274Z,44.30
2022-12-18T04:40:57.912Z,40.80
2022-12-18T04:44:02.940Z,43.67
2022-12-18T04:47:05.655Z,43.63
2022-12-18T04:50:08.560Z,47.50
2022-12-18T04:53:11.439Z,39.50
2022-12-18T04:56:15.725Z,42.45
2022-12-18T04:59:18.338Z,37.42
2022-12-18T05:02:21.370Z,34.17
2022-12-18T05:05:24.029Z,40.70
2022-12-18T05:08:27.028Z,44.55
2022-12-18T05:11:29.910Z,35.03
2022-12-18T05:14:32.349Z,35.50
2022-12-18T05:17:35.070Z,52.17
2022-12-18T05:20:37.630Z,45.90
2022-12-18T05:23:41.055Z,54.50
2022-12-18T05:26:44.088Z,55.28
2022-12-18T05:29:46.755Z,76.15
2022-12-18T05:32:49.403Z,63.70
2022-12-18T05:35:57.458Z,60.22
2022-12-18T05:39:01.287Z,52.00
2022-12-18T05:42:04.218Z,44.17
2022-12-18T05:45:07.284Z,40.28
2022-12-18T05:48:13.234Z,46.28
2022-12-18T05:51:17.774Z,47.50
2022-12-18T05:54:20.484Z,48.50
2022-12-18T05:57:23.126Z,40.92
2022-12-18T06:00:25.987Z,79.50
2022-12-18T06:03:33.714Z,95.80
2022-12-18T06:06:36.962Z,72.53
2022-12-18T06:09:39.880Z,59.47
2022-12-18T06:12:42.756Z,88.50
2022-12-18T06:15:45.217Z,46.63
2022-12-18T06:18:48.270Z,53.28
2022-12-18T06:21:51.781Z,45.92
2022-12-18T06:24:54.767Z,47.80
2022-12-18T06:27:57.614Z,53.58
2022-12-18T06:31:00.828Z,43.65
2022-12-18T06:34:05.007Z,46.50
2022-12-18T06:37:07.868Z,48.65
2022-12-18T06:40:10.792Z,49.35
2022-12-18T06:43:13.796Z,71.30
2022-12-18T06:46:16.496Z,67.35
2022-12-18T06:49:19.391Z,61.10
2022-12-18T06:52:21.918Z,62.33
2022-12-18T06:55:24.771Z,47.03
2022-12-18T06:58:29.675Z,52.33
2022-12-18T07:01:32.577Z,47.92
2022-12-18T07:04:55.607Z,50.70
2022-12-18T07:07:59.372Z,49.35
2022-12-18T07:11:05.360Z,53.30
2022-12-18T07:14:08.143Z,52.05
2022-12-18T07:17:10.958Z,47.90
2022-12-18T07:20:14.204Z,52.53
2022-12-18T07:23:16.865Z,50.50
2022-12-18T07:26:21.537Z,49.87
2022-12-18T07:29:24.766Z,45.63
2022-12-18T07:32:30.550Z,47.33
2022-12-18T07:35:43.442Z,40.47
2022-12-18T07:38:49.468Z,40.85
2022-12-18T07:42:10.820Z,45.35
2022-12-18T07:45:16.732Z,52.95
2022-12-18T07:48:19.431Z,51.47
2022-12-18T07:51:22.592Z,44.17
2022-12-18T07:54:25.928Z,55.28
2022-12-18T08:00:51.883Z,57.05
2022-12-18T08:03:54.520Z,57.97
2022-12-18T08:06:57.390Z,57.30
2022-12-18T08:09:59.930Z,48.92
2022-12-18T08:13:05.151Z,50.38
2022-12-18T08:16:08.751Z,46.65
2022-12-18T08:19:11.488Z,47.45
2022-12-18T08:22:14.487Z,46.42
2022-12-18T08:25:17.132Z,61.08
2022-12-18T08:28:20.296Z,50.20
2022-12-18T08:31:23.624Z,51.17
2022-12-18T08:34:27.275Z,54.40
2022-12-18T08:37:30.313Z,49.80
2022-12-18T08:40:33.223Z,46.13
2022-12-18T08:43:54.986Z,56.25
2022-12-18T08:46:57.836Z,43.13
2022-12-18T08:50:00.260Z,43.88
2022-12-18T08:53:03.485Z,46.67
2022-12-18T08:56:06.575Z,51.58
2022-12-18T08:59:15.787Z,52.63
2022-12-18T09:02:21.767Z,48.15
2022-12-18T09:05:24.675Z,46.40
2022-12-18T09:08:28.020Z,45.63
2022-12-18T09:11:31.701Z,47.03
2022-12-18T09:14:34.391Z,46.40
2022-12-18T09:17:37.401Z,50.78
2022-12-18T09:20:40.419Z,50.22
2022-12-18T09:23:43.668Z,46.42
2022-12-18T09:26:47.319Z,46.33
2022-12-18T09:29:50.879Z,47.13
2022-12-18T09:32:54.991Z,49.97
2022-12-18T09:35:57.751Z,43.33
2022-12-18T09:39:04.987Z,48.80
2022-12-18T09:42:21.808Z,45.63
2022-12-18T09:45:25.176Z,51.38
2022-12-18T09:48:38.455Z,45.75
2022-12-18T09:51:48.268Z,41.63
2022-12-18T09:55:09.847Z,49.78
2022-12-18T09:58:25.451Z,51.40
2022-12-18T10:01:38.948Z,59.30
2022-12-18T10:04:58.115Z,55.08
2022-12-18T10:08:12.931Z,47.53
2022-12-18T10:11:53.227Z,51.03
2022-12-18T10:15:24.641Z,51.50
2022-12-18T10:18:45.217Z,57.72
2022-12-18T10:22:18.059Z,36.58
2022-12-18T10:25:35.342Z,45.97
2022-12-18T10:28:41.111Z,53.75
2022-12-18T10:31:44.178Z,59.22
2022-12-18T10:34:48.979Z,54.70
2022-12-18T10:38:22.734Z,69.97
2022-12-18T10:41:33.183Z,52.92
2022-12-18T10:44:35.906Z,40.67
2022-12-18T10:47:44.658Z,51.50
2022-12-18T10:54:20.666Z,54.92
2022-12-18T10:57:34.759Z,57.55
2022-12-18T11:00:38.288Z,53.13
2022-12-18T11:03:43.630Z,54.22
2022-12-18T11:07:02.770Z,49.00
2022-12-18T11:10:06.897Z,51.20
2022-12-18T11:13:17.943Z,54.25
2022-12-18T11:16:21.267Z,54.13
2022-12-18T11:19:38.259Z,49.33
2022-12-18T11:22:41.228Z,42.30
2022-12-18T11:25:53.573Z,49.22
2022-12-18T11:29:11.300Z,43.97
2022-12-18T11:32:37.223Z,39.83
2022-12-18T11:35:53.439Z,47.33
2022-12-18T11:38:58.755Z,44.80
2022-12-18T11:42:12.780Z,42.97
2022-12-18T11:45:25.000Z,47.97
2022-12-18T11:48:40.312Z,47.83
2022-12-18T11:51:53.443Z,48.85
2022-12-18T11:55:00.982Z,63.92
2022-12-18T11:58:09.674Z,49.50
2022-12-18T12:01:18.095Z,49.65
2022-12-18T12:05:02.399Z,47.20
2022-12-18T12:08:46.560Z,54.00
2022-12-18T12:11:52.190Z,44.93
2022-12-18T12:15:14.412Z,46.20
2022-12-18T12:18:28.082Z,51.97
2022-12-18T12:21:39.719Z,53.93
2022-12-18T12:24:51.319Z,45.17
2022-12-18T12:28:19.747Z,45.97
2022-12-18T12:31:44.415Z,44.35
2022-12-18T12:35:10.189Z,45.83
2022-12-18T12:38:16.327Z,43.67
2022-12-18T12:41:42.136Z,52.35
2022-12-18T12:44:56.334Z,52.70
2022-12-18T12:48:02.539Z,47.85
2022-12-18T12:51:15.024Z,44.65
2022-12-18T12:54:24.584Z,35.77
2022-12-18T12:57:41.510Z,42.72
2022-12-18T13:01:02.708Z,88.28
2022-12-18T13:04:19.796Z,49.88
2022-12-18T13:07:33.491Z,43.83
2022-12-18T13:10:43.348Z,49.00
2022-12-18T13:13:51.496Z,47.38
2022-12-18T13:17:20.374Z,42.83
2022-12-18T13:20:33.516Z,95.60
2022-12-18T13:23:41.258Z,46.42
2022-12-18T13:26:44.481Z,48.63
2022-12-18T13:29:48.392Z,40.70
2022-12-18T13:33:21.758Z,42.35
2022-12-18T13:36:31.584Z,41.72
2022-12-18T13:39:36.082Z,51.88
2022-12-18T13:42:59.753Z,48.10
2022-12-18T13:46:06.895Z,51.25
2022-12-18T13:49:36.067Z,42.77
2022-12-18T13:52:41.415Z,51.75
2022-12-18T13:55:46.515Z,47.00
2022-12-18T13:59:27.929Z,49.20
2022-12-18T14:02:31.657Z,77.60
2022-12-18T14:05:38.697Z,93.35
2022-12-18T14:08:46.176Z,74.40
2022-12-18T14:11:54.943Z,65.57
2022-12-18T14:14:59.410Z,71.07
2022-12-18T14:18:15.358Z,63.97
2022-12-18T14:21:31.575Z,70.27
2022-12-18T14:24:36.316Z,66.95
2022-12-18T14:27:45.582Z,72.15
2022-12-18T14:34:05.568Z,66.05
2022-12-18T14:37:12.773Z,57.33
2022-12-18T14:40:15.752Z,63.25
2022-12-18T14:50:04.915Z,190.05
2022-12-18T14:53:32.927Z,148.33
2022-12-18T14:56:48.413Z,88.80
2022-12-18T15:03:19.660Z,75.53
2022-12-18T15:06:32.448Z,127.80
2022-12-18T15:09:36.814Z,127.80
2022-12-18T15:13:14.259Z,140.30
2022-12-18T15:16:22.511Z,100.30
2022-12-18T15:23:03.891Z,81.20
2022-12-18T15:29:30.003Z,85.47
2022-12-18T15:36:15.740Z,82.23
2022-12-18T15:43:18.994Z,91.32
2022-12-18T15:46:28.779Z,79.13
2022-12-18T15:49:33.963Z,67.20
2022-12-18T15:52:50.235Z,58.13
2022-12-18T16:02:50.953Z,62.22
2022-12-18T16:12:44.404Z,61.35
2022-12-18T16:19:15.872Z,82.47
2022-12-18T16:28:58.245Z,73.78
2022-12-18T16:35:23.640Z,89.00
2022-12-18T16:38:33.978Z,85.30
2022-12-18T16:54:56.807Z,97.40
2022-12-18T16:58:00.477Z,92.25
2022-12-18T17:01:08.738Z,100.22
2022-12-18T17:04:11.762Z,97.53
2022-12-18T17:07:17.046Z,96.60
2022-12-18T17:10:20.065Z,87.07
2022-12-18T17:13:26.655Z,98.10
2022-12-18T17:16:29.602Z,106.22
2022-12-18T17:19:32.386Z,98.40
2022-12-18T17:22:35.259Z,96.95
2022-12-18T17:25:40.429Z,102.18
2022-12-18T17:28:43.704Z,89.85
2022-12-18T17:31:47.449Z,94.60
2022-12-18T17:34:50.503Z,116.53
2022-12-18T17:37:53.383Z,107.00
2022-12-18T17:41:02.521Z,101.32
2022-12-18T17:44:05.996Z,95.80
2022-12-18T17:47:12.291Z,100.78
2022-12-18T17:50:16.346Z,105.22
2022-12-18T17:53:19.191Z,120.40
2022-12-18T17:56:23.805Z,122.78
2022-12-18T17:59:26.382Z,199.02
2022-12-18T18:02:29.050Z,224.60
2022-12-18T18:05:33.306Z,251.47
2022-12-18T18:08:37.245Z,284.98
2022-12-18T18:11:59.147Z,200.45
2022-12-18T18:15:01.976Z,239.23
2022-12-18T18:18:05.515Z,171.30
2022-12-18T18:21:09.137Z,147.48
2022-12-18T18:24:14.782Z,141.88
2022-12-18T18:27:17.902Z,131.15
2022-12-18T18:30:20.859Z,137.23
2022-12-18T18:33:24.058Z,133.10
2022-12-18T18:36:27.530Z,123.63
2022-12-18T18:39:30.464Z,112.97
2022-12-18T18:42:33.636Z,136.15
2022-12-18T18:45:36.208Z,160.83
2022-12-18T18:48:41.662Z,136.85
2022-12-18T18:51:46.607Z,132.27
2022-12-18T18:55:11.565Z,111.80
2022-12-18T18:58:12.623Z,96.10
2022-12-18T19:01:20.481Z,85.88
2022-12-18T19:04:23.477Z,78.50
2022-12-18T19:07:30.957Z,70.37
2022-12-18T19:10:33.852Z,58.78
2022-12-18T19:13:37.139Z,66.50
2022-12-18T19:16:40.290Z,52.33
2022-12-18T19:19:43.666Z,58.92
2022-12-18T19:22:54.365Z,59.97
2022-12-18T19:26:26.894Z,45.22
2022-12-18T19:29:26.799Z,46.97
2022-12-18T19:32:31.708Z,42.33
2022-12-18T19:35:34.645Z,37.75
2022-12-18T19:38:38.079Z,34.87
2022-12-18T19:41:41.791Z,35.22
2022-12-18T19:44:48.121Z,45.10
2022-12-18T19:47:50.871Z,40.20
2022-12-18T19:50:54.358Z,33.03
2022-12-18T19:53:59.895Z,33.53
2022-12-18T19:57:07.266Z,37.55
2022-12-18T20:00:15.445Z,34.55
2022-12-18T20:03:28.688Z,34.40
2022-12-18T20:06:45.190Z,37.42
2022-12-18T20:09:48.008Z,27.87
2022-12-18T20:12:50.859Z,42.42
2022-12-18T20:15:54.393Z,33.88
2022-12-18T20:18:57.730Z,33.33
2022-12-18T20:22:01.837Z,26.50
2022-12-18T20:25:04.839Z,28.08
2022-12-18T20:28:07.686Z,39.42
2022-12-18T20:31:13.298Z,44.88
2022-12-18T20:34:17.112Z,43.53
2022-12-18T20:37:19.939Z,56.55
2022-12-18T20:40:24.271Z,48.70
2022-12-18T20:43:26.766Z,53.05
2022-12-18T20:46:29.973Z,48.28
2022-12-18T20:49:32.682Z,55.50
2022-12-18T20:52:35.666Z,44.30
2022-12-18T20:55:42.910Z,35.97
2022-12-18T20:58:45.627Z,36.42
2022-12-18T21:01:49.438Z,41.13
2022-12-18T21:04:53.435Z,36.55
2022-12-18T21:07:56.320Z,38.90
2022-12-18T21:11:40.732Z,42.37
2022-12-18T21:14:44.466Z,50.63
2022-12-18T21:17:47.246Z,31.75
2022-12-18T21:20:49.962Z,28.00
2022-12-18T21:23:52.573Z,31.23
2022-12-18T21:26:55.518Z,28.55
2022-12-18T21:29:58.281Z,25.45
2022-12-18T21:33:00.843Z,28.67
2022-12-18T21:36:07.769Z,27.55
2022-12-18T21:39:10.695Z,35.90
2022-12-18T21:42:32.339Z,29.60
2022-12-18T21:45:34.950Z,33.90
2022-12-18T21:48:40.738Z,41.63
2022-12-18T21:51:43.184Z,30.40
2022-12-18T21:54:45.857Z,26.50
2022-12-18T21:57:48.380Z,25.00
2022-12-18T22:00:51.551Z,35.63
2022-12-18T22:03:54.334Z,39.92
2022-12-18T22:06:57.583Z,71.72
2022-12-18T22:10:00.905Z,44.95
2022-12-18T22:13:07.048Z,46.17
2022-12-18T22:16:09.560Z,43.58
2022-12-18T22:19:12.568Z,37.88
2022-12-18T22:22:17.274Z,46.57
2022-12-18T22:25:20.047Z,48.42
2022-12-18T22:28:41.143Z,52.78
2022-12-18T22:31:44.078Z,46.95
2022-12-18T22:34:47.097Z,38.03
2022-12-18T22:37:49.819Z,36.75
2022-12-18T22:40:52.707Z,29.80
2022-12-18T22:43:55.740Z,35.47
2022-12-18T22:47:06.568Z,37.75
2022-12-18T22:50:13.082Z,27.50
2022-12-18T22:53:20.006Z,34.47
2022-12-18T22:56:23.226Z,22.73
2022-12-18T22:59:26.783Z,26.33
2022-12-18T23:02:29.656Z,20.48
2022-12-18T23:05:32.452Z,21.95
2022-12-18T23:08:35.545Z,24.52
2022-12-18T23:11:38.174Z,25.15
2022-12-18T23:14:41.133Z,33.37
2022-12-18T23:17:43.549Z,28.48
2022-12-18T23:20:46.576Z,25.90
2022-12-18T23:23:50.311Z,29.13
2022-12-18T23:26:53.235Z,29.33
2022-12-18T23:29:56.022Z,27.73
2022-12-18T23:33:01.218Z,31.15
2022-12-18T23:36:05.332Z,22.13
2022-12-18T23:39:08.294Z,29.98
2022-12-18T23:42:11.056Z,21.45
2022-12-18T23:45:17.989Z,31.23
2022-12-18T23:48:21.240Z,27.90
2022-12-18T23:51:26.058Z,23.98
2022-12-18T23:54:32.775Z,26.33
2022-12-18T23:57:36.663Z,26.52
